sensor_id;sensor_type;location;lat;lon;timestamp;P1;durP1;ratioP1;P2;durP2;ratioP2
65533;SDS011;53640;55.838;37.184;2023-05-24T00:01:03;6.32;;;4.80;;
65533;SDS011;53640;55.838;37.184;2023-05-24T00:03:29;4.97;;;4.25;;
65533;SDS011;53640;55.838;37.184;2023-05-24T00:06:00;8.00;;;4.50;;
65533;SDS011;53640;55.838;37.184;2023-05-24T00:08:27;8.63;;;4.03;;
65533;SDS011;53640;55.838;37.184;2023-05-24T00:10:54;4.47;;;3.58;;
65533;SDS011;53640;55.838;37.184;2023-05-24T00:13:20;4.40;;;2.67;;
65533;SDS011;53640;55.838;37.184;2023-05-24T00:15:47;3.05;;;2.72;;
65533;SDS011;53640;55.838;37.184;2023-05-24T00:18:13;4.57;;;3.67;;
65533;SDS011;53640;55.838;37.184;2023-05-24T00:20:42;5.05;;;4.22;;
65533;SDS011;53640;55.838;37.184;2023-05-24T00:23:12;8.05;;;5.15;;
65533;SDS011;53640;55.838;37.184;2023-05-24T00:25:40;7.53;;;4.60;;
65533;SDS011;53640;55.838;37.184;2023-05-24T00:28:06;5.45;;;4.57;;
65533;SDS011;53640;55.838;37.184;2023-05-24T00:30:33;5.90;;;4.35;;
65533;SDS011;53640;55.838;37.184;2023-05-24T00:32:59;5.90;;;4.65;;
65533;SDS011;53640;55.838;37.184;2023-05-24T00:35:26;7.30;;;3.97;;
65533;SDS011;53640;55.838;37.184;2023-05-24T00:37:53;5.88;;;4.72;;
65533;SDS011;53640;55.838;37.184;2023-05-24T00:40:19;10.57;;;4.30;;
65533;SDS011;53640;55.838;37.184;2023-05-24T00:42:46;6.65;;;4.53;;
65533;SDS011;53640;55.838;37.184;2023-05-24T00:45:13;8.35;;;4.40;;
65533;SDS011;53640;55.838;37.184;2023-05-24T00:47:40;5.35;;;3.75;;
65533;SDS011;53640;55.838;37.184;2023-05-24T00:50:07;6.22;;;4.22;;
65533;SDS011;53640;55.838;37.184;2023-05-24T00:52:39;5.28;;;4.00;;
65533;SDS011;53640;55.838;37.184;2023-05-24T00:55:07;4.57;;;4.10;;
65533;SDS011;53640;55.838;37.184;2023-05-24T00:57:37;11.45;;;4.57;;
65533;SDS011;53640;55.838;37.184;2023-05-24T01:00:04;6.97;;;4.60;;
65533;SDS011;53640;55.838;37.184;2023-05-24T01:02:32;6.97;;;4.38;;
65533;SDS011;53640;55.838;37.184;2023-05-24T01:04:59;7.18;;;4.55;;
65533;SDS011;53640;55.838;37.184;2023-05-24T01:07:29;5.97;;;4.00;;
65533;SDS011;53640;55.838;37.184;2023-05-24T01:10:46;5.47;;;3.47;;
65533;SDS011;53640;55.838;37.184;2023-05-24T01:16:09;3.08;;;2.75;;
65533;SDS011;53640;55.838;37.184;2023-05-24T01:18:40;3.92;;;2.78;;
65533;SDS011;53640;55.838;37.184;2023-05-24T01:27:07;3.10;;;2.80;;
65533;SDS011;53640;55.838;37.184;2023-05-24T01:29:37;5.15;;;3.00;;
65533;SDS011;53640;55.838;37.184;2023-05-24T01:32:05;8.27;;;3.97;;
65533;SDS011;53640;55.838;37.184;2023-05-24T01:34:32;7.35;;;4.53;;
65533;SDS011;53640;55.838;37.184;2023-05-24T01:36:58;6.50;;;4.70;;
65533;SDS011;53640;55.838;37.184;2023-05-24T01:39:25;6.45;;;4.50;;
65533;SDS011;53640;55.838;37.184;2023-05-24T01:47:03;3.35;;;2.92;;
65533;SDS011;53640;55.838;37.184;2023-05-24T01:49:52;5.18;;;3.00;;
65533;SDS011;53640;55.838;37.184;2023-05-24T01:52:25;3.60;;;2.47;;
65533;SDS011;53640;55.838;37.184;2023-05-24T01:57:23;6.28;;;3.10;;
65533;SDS011;53640;55.838;37.184;2023-05-24T01:59:51;4.45;;;2.47;;
65533;SDS011;53640;55.838;37.184;2023-05-24T02:02:21;2.65;;;2.17;;
65533;SDS011;53640;55.838;37.184;2023-05-24T02:04:48;2.95;;;2.38;;
65533;SDS011;53640;55.838;37.184;2023-05-24T02:07:14;4.50;;;2.65;;
65533;SDS011;53640;55.838;37.184;2023-05-24T02:09:43;4.10;;;2.28;;
65533;SDS011;53640;55.838;37.184;2023-05-24T02:12:11;3.25;;;2.72;;
65533;SDS011;53640;55.838;37.184;2023-05-24T02:14:38;3.17;;;2.70;;
65533;SDS011;53640;55.838;37.184;2023-05-24T02:17:08;4.53;;;2.58;;
65533;SDS011;53640;55.838;37.184;2023-05-24T02:19:37;4.00;;;2.42;;
65533;SDS011;53640;55.838;37.184;2023-05-24T02:22:05;2.95;;;2.10;;
65533;SDS011;53640;55.838;37.184;2023-05-24T02:24:32;3.33;;;2.33;;
65533;SDS011;53640;55.838;37.184;2023-05-24T02:26:58;2.05;;;1.85;;
65533;SDS011;53640;55.838;37.184;2023-05-24T02:29:26;2.30;;;2.10;;
65533;SDS011;53640;55.838;37.184;2023-05-24T02:31:52;3.20;;;2.70;;
65533;SDS011;53640;55.838;37.184;2023-05-24T02:34:21;6.22;;;3.10;;
65533;SDS011;53640;55.838;37.184;2023-05-24T02:36:49;8.02;;;4.30;;
65533;SDS011;53640;55.838;37.184;2023-05-24T02:39:16;7.50;;;4.43;;
65533;SDS011;53640;55.838;37.184;2023-05-24T02:41:43;6.30;;;3.50;;
65533;SDS011;53640;55.838;37.184;2023-05-24T02:44:09;5.30;;;3.30;;
65533;SDS011;53640;55.838;37.184;2023-05-24T02:46:36;12.32;;;4.97;;
65533;SDS011;53640;55.838;37.184;2023-05-24T02:49:03;11.10;;;4.32;;
65533;SDS011;53640;55.838;37.184;2023-05-24T02:51:31;7.40;;;4.10;;
65533;SDS011;53640;55.838;37.184;2023-05-24T02:53:57;4.75;;;3.45;;
65533;SDS011;53640;55.838;37.184;2023-05-24T02:56:28;7.32;;;4.40;;
65533;SDS011;53640;55.838;37.184;2023-05-24T02:58:55;6.43;;;4.32;;
65533;SDS011;53640;55.838;37.184;2023-05-24T03:01:22;6.35;;;4.10;;
65533;SDS011;53640;55.838;37.184;2023-05-24T03:03:52;10.40;;;4.45;;
65533;SDS011;53640;55.838;37.184;2023-05-24T03:06:19;8.43;;;4.22;;
65533;SDS011;53640;55.838;37.184;2023-05-24T03:08:46;7.20;;;4.10;;
65533;SDS011;53640;55.838;37.184;2023-05-24T03:11:16;10.50;;;4.63;;
65533;SDS011;53640;55.838;37.184;2023-05-24T03:13:47;6.97;;;4.25;;
65533;SDS011;53640;55.838;37.184;2023-05-24T03:16:15;5.30;;;3.90;;
65533;SDS011;53640;55.838;37.184;2023-05-24T03:18:42;7.60;;;4.13;;
65533;SDS011;53640;55.838;37.184;2023-05-24T03:21:09;5.28;;;3.95;;
65533;SDS011;53640;55.838;37.184;2023-05-24T03:23:39;12.55;;;4.80;;
65533;SDS011;53640;55.838;37.184;2023-05-24T03:26:06;7.63;;;4.20;;
65533;SDS011;53640;55.838;37.184;2023-05-24T03:28:33;6.10;;;4.10;;
65533;SDS011;53640;55.838;37.184;2023-05-24T03:31:01;7.35;;;4.53;;
65533;SDS011;53640;55.838;37.184;2023-05-24T03:33:28;6.18;;;4.53;;
65533;SDS011;53640;55.838;37.184;2023-05-24T03:35:56;5.32;;;4.15;;
65533;SDS011;53640;55.838;37.184;2023-05-24T03:38:27;4.93;;;4.10;;
65533;SDS011;53640;55.838;37.184;2023-05-24T03:40:54;9.13;;;4.28;;
65533;SDS011;53640;55.838;37.184;2023-05-24T03:43:20;8.35;;;5.85;;
65533;SDS011;53640;55.838;37.184;2023-05-24T03:45:51;8.73;;;4.97;;
65533;SDS011;53640;55.838;37.184;2023-05-24T03:48:19;10.60;;;5.78;;
65533;SDS011;53640;55.838;37.184;2023-05-24T03:50:47;10.38;;;6.45;;
65533;SDS011;53640;55.838;37.184;2023-05-24T03:53:13;9.10;;;5.93;;
65533;SDS011;53640;55.838;37.184;2023-05-24T03:55:40;12.02;;;6.65;;
65533;SDS011;53640;55.838;37.184;2023-05-24T03:58:06;8.10;;;5.10;;
65533;SDS011;53640;55.838;37.184;2023-05-24T04:00:33;9.35;;;5.35;;
65533;SDS011;53640;55.838;37.184;2023-05-24T04:03:00;13.10;;;7.30;;
65533;SDS011;53640;55.838;37.184;2023-05-24T04:05:29;10.52;;;6.32;;
65533;SDS011;53640;55.838;37.184;2023-05-24T04:07:55;7.93;;;4.90;;
65533;SDS011;53640;55.838;37.184;2023-05-24T04:10:22;11.02;;;5.72;;
65533;SDS011;53640;55.838;37.184;2023-05-24T04:12:49;8.27;;;5.32;;
65533;SDS011;53640;55.838;37.184;2023-05-24T04:15:16;17.05;;;6.10;;
65533;SDS011;53640;55.838;37.184;2023-05-24T04:17:43;8.98;;;5.40;;
65533;SDS011;53640;55.838;37.184;2023-05-24T04:20:12;8.10;;;5.53;;
65533;SDS011;53640;55.838;37.184;2023-05-24T04:22:39;8.18;;;5.25;;
65533;SDS011;53640;55.838;37.184;2023-05-24T04:25:06;8.10;;;5.60;;
65533;SDS011;53640;55.838;37.184;2023-05-24T04:27:34;7.78;;;5.20;;
65533;SDS011;53640;55.838;37.184;2023-05-24T04:30:01;11.23;;;5.57;;
65533;SDS011;53640;55.838;37.184;2023-05-24T04:32:30;11.38;;;5.32;;
65533;SDS011;53640;55.838;37.184;2023-05-24T04:34:56;7.75;;;5.13;;
65533;SDS011;53640;55.838;37.184;2023-05-24T04:37:24;9.38;;;4.65;;
65533;SDS011;53640;55.838;37.184;2023-05-24T04:39:50;7.65;;;5.20;;
65533;SDS011;53640;55.838;37.184;2023-05-24T04:42:16;10.13;;;5.40;;
65533;SDS011;53640;55.838;37.184;2023-05-24T04:44:43;9.60;;;5.32;;
65533;SDS011;53640;55.838;37.184;2023-05-24T04:47:09;7.63;;;4.45;;
65533;SDS011;53640;55.838;37.184;2023-05-24T04:49:37;11.48;;;5.40;;
65533;SDS011;53640;55.838;37.184;2023-05-24T04:52:05;9.10;;;4.72;;
65533;SDS011;53640;55.838;37.184;2023-05-24T04:54:33;8.20;;;4.88;;
65533;SDS011;53640;55.838;37.184;2023-05-24T04:57:00;11.77;;;5.25;;
65533;SDS011;53640;55.838;37.184;2023-05-24T04:59:26;9.70;;;5.22;;
65533;SDS011;53640;55.838;37.184;2023-05-24T05:01:52;7.03;;;4.53;;
65533;SDS011;53640;55.838;37.184;2023-05-24T05:04:19;8.95;;;4.60;;
65533;SDS011;53640;55.838;37.184;2023-05-24T05:06:48;8.43;;;4.70;;
65533;SDS011;53640;55.838;37.184;2023-05-24T05:09:15;7.63;;;4.78;;
65533;SDS011;53640;55.838;37.184;2023-05-24T05:11:42;6.78;;;4.38;;
65533;SDS011;53640;55.838;37.184;2023-05-24T05:14:11;5.72;;;4.20;;
65533;SDS011;53640;55.838;37.184;2023-05-24T05:16:37;11.60;;;4.97;;
65533;SDS011;53640;55.838;37.184;2023-05-24T05:19:04;7.57;;;4.78;;
65533;SDS011;53640;55.838;37.184;2023-05-24T05:21:30;9.07;;;4.72;;
65533;SDS011;53640;55.838;37.184;2023-05-24T05:26:29;7.28;;;4.68;;
65533;SDS011;53640;55.838;37.184;2023-05-24T05:28:56;11.30;;;5.10;;
65533;SDS011;53640;55.838;37.184;2023-05-24T05:31:23;8.00;;;4.35;;
65533;SDS011;53640;55.838;37.184;2023-05-24T05:33:49;10.55;;;5.35;;
65533;SDS011;53640;55.838;37.184;2023-05-24T05:36:16;12.68;;;4.82;;
65533;SDS011;53640;55.838;37.184;2023-05-24T05:38:43;12.27;;;5.95;;
65533;SDS011;53640;55.838;37.184;2023-05-24T05:41:09;5.25;;;3.88;;
65533;SDS011;53640;55.838;37.184;2023-05-24T05:43:37;9.05;;;4.90;;
65533;SDS011;53640;55.838;37.184;2023-05-24T05:46:04;6.30;;;4.70;;
65533;SDS011;53640;55.838;37.184;2023-05-24T05:48:31;10.18;;;4.18;;
65533;SDS011;53640;55.838;37.184;2023-05-24T05:50:57;7.28;;;4.47;;
65533;SDS011;53640;55.838;37.184;2023-05-24T05:53:25;10.75;;;4.95;;
65533;SDS011;53640;55.838;37.184;2023-05-24T05:55:52;10.80;;;5.28;;
65533;SDS011;53640;55.838;37.184;2023-05-24T05:58:19;9.05;;;4.65;;
65533;SDS011;53640;55.838;37.184;2023-05-24T06:00:48;8.10;;;5.13;;
65533;SDS011;53640;55.838;37.184;2023-05-24T06:03:14;8.85;;;5.93;;
65533;SDS011;53640;55.838;37.184;2023-05-24T06:05:41;11.80;;;5.20;;
65533;SDS011;53640;55.838;37.184;2023-05-24T06:08:08;6.10;;;4.75;;
65533;SDS011;53640;55.838;37.184;2023-05-24T06:10:34;7.32;;;4.70;;
65533;SDS011;53640;55.838;37.184;2023-05-24T06:13:01;13.02;;;5.70;;
65533;SDS011;53640;55.838;37.184;2023-05-24T06:15:29;7.63;;;5.15;;
65533;SDS011;53640;55.838;37.184;2023-05-24T06:17:58;15.10;;;6.00;;
65533;SDS011;53640;55.838;37.184;2023-05-24T06:20:26;11.10;;;5.65;;
65533;SDS011;53640;55.838;37.184;2023-05-24T06:22:54;14.50;;;5.40;;
65533;SDS011;53640;55.838;37.184;2023-05-24T06:25:22;8.27;;;5.30;;
65533;SDS011;53640;55.838;37.184;2023-05-24T06:27:49;10.90;;;5.65;;
65533;SDS011;53640;55.838;37.184;2023-05-24T06:30:21;7.13;;;4.95;;
65533;SDS011;53640;55.838;37.184;2023-05-24T06:32:48;7.95;;;4.65;;
65533;SDS011;53640;55.838;37.184;2023-05-24T06:35:15;6.85;;;4.30;;
65533;SDS011;53640;55.838;37.184;2023-05-24T06:37:43;10.35;;;5.00;;
65533;SDS011;53640;55.838;37.184;2023-05-24T06:40:10;5.90;;;4.63;;
65533;SDS011;53640;55.838;37.184;2023-05-24T06:42:38;9.98;;;5.10;;
65533;SDS011;53640;55.838;37.184;2023-05-24T06:45:05;11.35;;;5.07;;
65533;SDS011;53640;55.838;37.184;2023-05-24T06:47:35;10.82;;;6.35;;
65533;SDS011;53640;55.838;37.184;2023-05-24T06:50:02;8.93;;;6.22;;
65533;SDS011;53640;55.838;37.184;2023-05-24T06:52:30;9.93;;;5.88;;
65533;SDS011;53640;55.838;37.184;2023-05-24T06:54:57;9.27;;;5.63;;
65533;SDS011;53640;55.838;37.184;2023-05-24T06:57:23;7.90;;;5.47;;
65533;SDS011;53640;55.838;37.184;2023-05-24T06:59:50;9.85;;;5.15;;
65533;SDS011;53640;55.838;37.184;2023-05-24T07:02:16;8.85;;;5.70;;
65533;SDS011;53640;55.838;37.184;2023-05-24T07:04:43;7.45;;;5.00;;
65533;SDS011;53640;55.838;37.184;2023-05-24T07:07:10;11.43;;;5.68;;
65533;SDS011;53640;55.838;37.184;2023-05-24T07:09:39;13.40;;;6.75;;
65533;SDS011;53640;55.838;37.184;2023-05-24T07:12:07;9.93;;;5.40;;
65533;SDS011;53640;55.838;37.184;2023-05-24T07:14:34;6.32;;;4.50;;
65533;SDS011;53640;55.838;37.184;2023-05-24T07:17:00;12.85;;;5.75;;
65533;SDS011;53640;55.838;37.184;2023-05-24T07:19:27;13.27;;;5.53;;
65533;SDS011;53640;55.838;37.184;2023-05-24T07:21:54;5.45;;;4.32;;
65533;SDS011;53640;55.838;37.184;2023-05-24T07:24:21;8.88;;;5.70;;
65533;SDS011;53640;55.838;37.184;2023-05-24T07:26:50;9.98;;;5.55;;
65533;SDS011;53640;55.838;37.184;2023-05-24T07:29:18;9.52;;;5.93;;
65533;SDS011;53640;55.838;37.184;2023-05-24T07:31:46;11.57;;;4.80;;
65533;SDS011;53640;55.838;37.184;2023-05-24T07:34:13;9.18;;;5.57;;
65533;SDS011;53640;55.838;37.184;2023-05-24T07:36:42;10.95;;;6.03;;
65533;SDS011;53640;55.838;37.184;2023-05-24T07:39:13;6.88;;;5.22;;
65533;SDS011;53640;55.838;37.184;2023-05-24T07:41:43;6.50;;;4.28;;
65533;SDS011;53640;55.838;37.184;2023-05-24T07:44:19;6.25;;;5.00;;
65533;SDS011;53640;55.838;37.184;2023-05-24T07:46:49;7.35;;;5.28;;
65533;SDS011;53640;55.838;37.184;2023-05-24T07:49:27;9.25;;;4.88;;
65533;SDS011;53640;55.838;37.184;2023-05-24T07:51:57;9.48;;;5.72;;
65533;SDS011;53640;55.838;37.184;2023-05-24T07:54:32;10.65;;;5.38;;
65533;SDS011;53640;55.838;37.184;2023-05-24T07:57:09;8.45;;;4.57;;
65533;SDS011;53640;55.838;37.184;2023-05-24T07:59:40;8.85;;;5.93;;
65533;SDS011;53640;55.838;37.184;2023-05-24T08:02:16;11.38;;;5.47;;
65533;SDS011;53640;55.838;37.184;2023-05-24T08:04:42;9.57;;;5.38;;
65533;SDS011;53640;55.838;37.184;2023-05-24T08:07:20;10.65;;;5.07;;
65533;SDS011;53640;55.838;37.184;2023-05-24T08:09:49;7.07;;;4.45;;
65533;SDS011;53640;55.838;37.184;2023-05-24T08:12:17;7.60;;;4.82;;
65533;SDS011;53640;55.838;37.184;2023-05-24T08:14:47;12.07;;;4.93;;
65533;SDS011;53640;55.838;37.184;2023-05-24T08:17:13;8.80;;;4.78;;
65533;SDS011;53640;55.838;37.184;2023-05-24T08:19:40;6.82;;;4.75;;
65533;SDS011;53640;55.838;37.184;2023-05-24T08:22:06;11.30;;;5.90;;
65533;SDS011;53640;55.838;37.184;2023-05-24T08:24:33;8.60;;;6.00;;
65533;SDS011;53640;55.838;37.184;2023-05-24T08:27:00;11.15;;;6.07;;
65533;SDS011;53640;55.838;37.184;2023-05-24T08:29:33;11.25;;;5.47;;
65533;SDS011;53640;55.838;37.184;2023-05-24T08:32:00;16.27;;;5.97;;
65533;SDS011;53640;55.838;37.184;2023-05-24T08:34:28;7.28;;;5.15;;
65533;SDS011;53640;55.838;37.184;2023-05-24T08:37:03;11.02;;;5.88;;
65533;SDS011;53640;55.838;37.184;2023-05-24T08:39:30;11.77;;;6.53;;
65533;SDS011;53640;55.838;37.184;2023-05-24T08:41:56;9.35;;;5.75;;
65533;SDS011;53640;55.838;37.184;2023-05-24T08:44:25;10.60;;;5.43;;
65533;SDS011;53640;55.838;37.184;2023-05-24T08:46:58;11.63;;;5.40;;
65533;SDS011;53640;55.838;37.184;2023-05-24T08:49:25;7.72;;;4.70;;
65533;SDS011;53640;55.838;37.184;2023-05-24T08:51:54;6.90;;;4.55;;
65533;SDS011;53640;55.838;37.184;2023-05-24T08:54:21;7.32;;;4.93;;
65533;SDS011;53640;55.838;37.184;2023-05-24T08:56:47;8.85;;;5.72;;
65533;SDS011;53640;55.838;37.184;2023-05-24T08:59:15;9.13;;;5.80;;
65533;SDS011;53640;55.838;37.184;2023-05-24T09:01:42;9.80;;;6.20;;
65533;SDS011;53640;55.838;37.184;2023-05-24T09:04:13;9.30;;;6.65;;
65533;SDS011;53640;55.838;37.184;2023-05-24T09:06:39;10.50;;;6.15;;
65533;SDS011;53640;55.838;37.184;2023-05-24T09:09:06;10.35;;;6.70;;
65533;SDS011;53640;55.838;37.184;2023-05-24T09:11:37;10.05;;;6.88;;
65533;SDS011;53640;55.838;37.184;2023-05-24T09:14:07;12.57;;;6.97;;
65533;SDS011;53640;55.838;37.184;2023-05-24T09:16:34;11.40;;;7.22;;
65533;SDS011;53640;55.838;37.184;2023-05-24T09:19:01;11.32;;;8.00;;
65533;SDS011;53640;55.838;37.184;2023-05-24T09:21:28;10.95;;;7.68;;
65533;SDS011;53640;55.838;37.184;2023-05-24T09:23:55;17.15;;;7.90;;
65533;SDS011;53640;55.838;37.184;2023-05-24T09:26:26;9.23;;;6.57;;
65533;SDS011;53640;55.838;37.184;2023-05-24T09:28:55;9.43;;;6.68;;
65533;SDS011;53640;55.838;37.184;2023-05-24T09:31:32;8.82;;;7.10;;
65533;SDS011;53640;55.838;37.184;2023-05-24T09:33:59;13.43;;;7.50;;
65533;SDS011;53640;55.838;37.184;2023-05-24T09:36:26;15.13;;;8.43;;
65533;SDS011;53640;55.838;37.184;2023-05-24T09:39:07;8.75;;;7.53;;
65533;SDS011;53640;55.838;37.184;2023-05-24T09:41:35;14.50;;;7.75;;
65533;SDS011;53640;55.838;37.184;2023-05-24T09:44:02;12.70;;;6.82;;
65533;SDS011;53640;55.838;37.184;2023-05-24T09:46:35;10.95;;;6.70;;
65533;SDS011;53640;55.838;37.184;2023-05-24T09:49:03;15.07;;;7.28;;
65533;SDS011;53640;55.838;37.184;2023-05-24T09:51:37;12.70;;;7.07;;
65533;SDS011;53640;55.838;37.184;2023-05-24T09:54:04;9.27;;;6.25;;
65533;SDS011;53640;55.838;37.184;2023-05-24T09:56:34;13.80;;;7.32;;
65533;SDS011;53640;55.838;37.184;2023-05-24T09:59:04;10.90;;;5.78;;
65533;SDS011;53640;55.838;37.184;2023-05-24T10:01:34;14.95;;;7.57;;
65533;SDS011;53640;55.838;37.184;2023-05-24T10:04:01;24.33;;;8.07;;
65533;SDS011;53640;55.838;37.184;2023-05-24T10:06:32;11.38;;;6.03;;
65533;SDS011;53640;55.838;37.184;2023-05-24T10:09:04;10.95;;;6.13;;
65533;SDS011;53640;55.838;37.184;2023-05-24T10:11:33;10.30;;;6.50;;
65533;SDS011;53640;55.838;37.184;2023-05-24T10:14:04;9.15;;;5.53;;
65533;SDS011;53640;55.838;37.184;2023-05-24T10:16:35;15.82;;;6.82;;
65533;SDS011;53640;55.838;37.184;2023-05-24T10:19:04;12.90;;;6.68;;
65533;SDS011;53640;55.838;37.184;2023-05-24T10:21:31;9.63;;;6.75;;
65533;SDS011;53640;55.838;37.184;2023-05-24T10:24:04;9.93;;;6.50;;
65533;SDS011;53640;55.838;37.184;2023-05-24T10:26:37;16.15;;;7.03;;
65533;SDS011;53640;55.838;37.184;2023-05-24T10:29:06;9.65;;;4.93;;
65533;SDS011;53640;55.838;37.184;2023-05-24T10:31:37;10.10;;;4.55;;
65533;SDS011;53640;55.838;37.184;2023-05-24T10:34:06;8.45;;;5.30;;
65533;SDS011;53640;55.838;37.184;2023-05-24T10:36:33;10.68;;;6.38;;
65533;SDS011;53640;55.838;37.184;2023-05-24T10:39:03;8.88;;;6.15;;
65533;SDS011;53640;55.838;37.184;2023-05-24T10:41:39;11.75;;;5.95;;
65533;SDS011;53640;55.838;37.184;2023-05-24T10:44:10;9.00;;;5.10;;
65533;SDS011;53640;55.838;37.184;2023-05-24T10:49:23;12.90;;;6.78;;
65533;SDS011;53640;55.838;37.184;2023-05-24T10:51:50;10.85;;;6.70;;
65533;SDS011;53640;55.838;37.184;2023-05-24T10:54:28;13.05;;;7.05;;
65533;SDS011;53640;55.838;37.184;2023-05-24T10:56:59;15.02;;;7.68;;
65533;SDS011;53640;55.838;37.184;2023-05-24T10:59:30;9.48;;;4.50;;
65533;SDS011;53640;55.838;37.184;2023-05-24T11:02:00;11.55;;;5.30;;
65533;SDS011;53640;55.838;37.184;2023-05-24T11:04:30;12.27;;;4.78;;
65533;SDS011;53640;55.838;37.184;2023-05-24T11:07:00;5.80;;;4.30;;
65533;SDS011;53640;55.838;37.184;2023-05-24T11:09:28;6.50;;;4.10;;
65533;SDS011;53640;55.838;37.184;2023-05-24T11:12:05;10.90;;;4.90;;
65533;SDS011;53640;55.838;37.184;2023-05-24T11:14:37;6.10;;;4.18;;
65533;SDS011;53640;55.838;37.184;2023-05-24T11:17:06;7.57;;;3.45;;
65533;SDS011;53640;55.838;37.184;2023-05-24T11:19:37;7.60;;;4.30;;
65533;SDS011;53640;55.838;37.184;2023-05-24T11:22:14;5.60;;;4.00;;
65533;SDS011;53640;55.838;37.184;2023-05-24T11:24:43;6.63;;;4.65;;
65533;SDS011;53640;55.838;37.184;2023-05-24T11:27:10;10.32;;;4.75;;
65533;SDS011;53640;55.838;37.184;2023-05-24T11:29:44;9.80;;;5.10;;
65533;SDS011;53640;55.838;37.184;2023-05-24T11:32:15;9.23;;;6.28;;
65533;SDS011;53640;55.838;37.184;2023-05-24T11:34:47;8.23;;;6.00;;
65533;SDS011;53640;55.838;37.184;2023-05-24T11:37:14;6.60;;;4.63;;
65533;SDS011;53640;55.838;37.184;2023-05-24T11:39:41;14.65;;;5.22;;
65533;SDS011;53640;55.838;37.184;2023-05-24T11:42:14;11.38;;;6.53;;
65533;SDS011;53640;55.838;37.184;2023-05-24T11:44:41;8.63;;;5.20;;
65533;SDS011;53640;55.838;37.184;2023-05-24T11:47:07;8.07;;;6.10;;
65533;SDS011;53640;55.838;37.184;2023-05-24T11:49:34;8.05;;;5.55;;
65533;SDS011;53640;55.838;37.184;2023-05-24T11:52:01;10.88;;;6.18;;
65533;SDS011;53640;55.838;37.184;2023-05-24T11:54:29;9.60;;;6.13;;
65533;SDS011;53640;55.838;37.184;2023-05-24T11:56:58;15.85;;;6.97;;
65533;SDS011;53640;55.838;37.184;2023-05-24T11:59:25;10.90;;;7.05;;
65533;SDS011;53640;55.838;37.184;2023-05-24T12:01:56;8.20;;;4.82;;
65533;SDS011;53640;55.838;37.184;2023-05-24T12:04:25;10.55;;;5.50;;
65533;SDS011;53640;55.838;37.184;2023-05-24T12:06:53;5.68;;;4.68;;
65533;SDS011;53640;55.838;37.184;2023-05-24T12:09:21;6.07;;;3.63;;
65533;SDS011;53640;55.838;37.184;2023-05-24T12:11:49;8.88;;;4.53;;
65533;SDS011;53640;55.838;37.184;2023-05-24T12:14:17;4.90;;;3.60;;
65533;SDS011;53640;55.838;37.184;2023-05-24T12:16:47;7.38;;;4.50;;
65533;SDS011;53640;55.838;37.184;2023-05-24T12:19:17;8.50;;;3.50;;
65533;SDS011;53640;55.838;37.184;2023-05-24T12:21:45;3.60;;;2.90;;
65533;SDS011;53640;55.838;37.184;2023-05-24T12:24:13;6.57;;;4.07;;
65533;SDS011;53640;55.838;37.184;2023-05-24T12:26:42;6.07;;;3.33;;
65533;SDS011;53640;55.838;37.184;2023-05-24T12:29:10;13.63;;;4.30;;
65533;SDS011;53640;55.838;37.184;2023-05-24T12:31:41;9.00;;;4.43;;
65533;SDS011;53640;55.838;37.184;2023-05-24T12:34:12;5.10;;;3.03;;
65533;SDS011;53640;55.838;37.184;2023-05-24T12:39:17;4.00;;;3.30;;
65533;SDS011;53640;55.838;37.184;2023-05-24T12:41:51;7.18;;;4.63;;
65533;SDS011;53640;55.838;37.184;2023-05-24T12:44:25;3.97;;;3.20;;
65533;SDS011;53640;55.838;37.184;2023-05-24T12:46:56;11.93;;;5.38;;
65533;SDS011;53640;55.838;37.184;2023-05-24T12:49:24;7.30;;;3.83;;
65533;SDS011;53640;55.838;37.184;2023-05-24T12:51:52;5.35;;;3.97;;
65533;SDS011;53640;55.838;37.184;2023-05-24T12:54:23;9.13;;;3.88;;
65533;SDS011;53640;55.838;37.184;2023-05-24T12:56:51;5.47;;;3.13;;
65533;SDS011;53640;55.838;37.184;2023-05-24T12:59:19;1.88;;;1.73;;
65533;SDS011;53640;55.838;37.184;2023-05-24T13:01:46;8.85;;;3.25;;
65533;SDS011;53640;55.838;37.184;2023-05-24T13:04:16;4.13;;;2.50;;
65533;SDS011;53640;55.838;37.184;2023-05-24T13:06:44;2.72;;;2.53;;
65533;SDS011;53640;55.838;37.184;2023-05-24T13:09:10;14.57;;;3.92;;
65533;SDS011;53640;55.838;37.184;2023-05-24T13:11:38;7.18;;;3.20;;
65533;SDS011;53640;55.838;37.184;2023-05-24T13:14:05;4.20;;;2.80;;
65533;SDS011;53640;55.838;37.184;2023-05-24T13:16:32;4.18;;;2.50;;
65533;SDS011;53640;55.838;37.184;2023-05-24T13:19:00;3.13;;;2.30;;
65533;SDS011;53640;55.838;37.184;2023-05-24T13:21:26;13.63;;;4.03;;
65533;SDS011;53640;55.838;37.184;2023-05-24T13:23:54;5.00;;;2.90;;
65533;SDS011;53640;55.838;37.184;2023-05-24T13:26:21;9.52;;;3.70;;
65533;SDS011;53640;55.838;37.184;2023-05-24T13:28:49;4.60;;;3.33;;
65533;SDS011;53640;55.838;37.184;2023-05-24T13:31:16;12.00;;;4.28;;
65533;SDS011;53640;55.838;37.184;2023-05-24T13:33:43;6.63;;;4.25;;
65533;SDS011;53640;55.838;37.184;2023-05-24T13:36:09;8.23;;;4.25;;
65533;SDS011;53640;55.838;37.184;2023-05-24T13:38:35;11.68;;;4.00;;
65533;SDS011;53640;55.838;37.184;2023-05-24T13:41:03;9.93;;;4.32;;
65533;SDS011;53640;55.838;37.184;2023-05-24T13:43:29;6.93;;;3.85;;
65533;SDS011;53640;55.838;37.184;2023-05-24T13:45:56;6.07;;;3.40;;
65533;SDS011;53640;55.838;37.184;2023-05-24T13:48:23;5.28;;;3.50;;
65533;SDS011;53640;55.838;37.184;2023-05-24T13:50:50;3.75;;;2.45;;
65533;SDS011;53640;55.838;37.184;2023-05-24T13:53:16;3.40;;;2.58;;
65533;SDS011;53640;55.838;37.184;2023-05-24T13:55:42;2.58;;;2.30;;
65533;SDS011;53640;55.838;37.184;2023-05-24T13:58:09;5.90;;;2.80;;
65533;SDS011;53640;55.838;37.184;2023-05-24T14:00:35;3.88;;;2.55;;
65533;SDS011;53640;55.838;37.184;2023-05-24T14:03:02;4.18;;;3.00;;
65533;SDS011;53640;55.838;37.184;2023-05-24T14:05:30;5.35;;;2.80;;
65533;SDS011;53640;55.838;37.184;2023-05-24T14:07:57;10.00;;;3.80;;
65533;SDS011;53640;55.838;37.184;2023-05-24T14:10:32;5.38;;;3.45;;
65533;SDS011;53640;55.838;37.184;2023-05-24T14:13:02;5.22;;;3.35;;
65533;SDS011;53640;55.838;37.184;2023-05-24T14:15:29;7.85;;;3.50;;
65533;SDS011;53640;55.838;37.184;2023-05-24T14:17:56;4.50;;;2.80;;
65533;SDS011;53640;55.838;37.184;2023-05-24T14:20:23;3.53;;;2.40;;
65533;SDS011;53640;55.838;37.184;2023-05-24T14:22:51;4.53;;;2.90;;
65533;SDS011;53640;55.838;37.184;2023-05-24T14:25:19;5.82;;;3.53;;
65533;SDS011;53640;55.838;37.184;2023-05-24T14:27:46;4.97;;;3.70;;
65533;SDS011;53640;55.838;37.184;2023-05-24T14:30:13;3.58;;;2.90;;
65533;SDS011;53640;55.838;37.184;2023-05-24T14:32:39;6.70;;;3.22;;
65533;SDS011;53640;55.838;37.184;2023-05-24T14:35:06;4.45;;;3.13;;
65533;SDS011;53640;55.838;37.184;2023-05-24T14:37:32;3.90;;;2.55;;
65533;SDS011;53640;55.838;37.184;2023-05-24T14:39:59;3.00;;;2.70;;
65533;SDS011;53640;55.838;37.184;2023-05-24T14:42:25;4.63;;;2.40;;
65533;SDS011;53640;55.838;37.184;2023-05-24T14:44:52;2.67;;;2.38;;
65533;SDS011;53640;55.838;37.184;2023-05-24T14:47:18;3.05;;;2.33;;
65533;SDS011;53640;55.838;37.184;2023-05-24T14:49:46;3.85;;;2.92;;
65533;SDS011;53640;55.838;37.184;2023-05-24T14:52:13;5.60;;;3.70;;
65533;SDS011;53640;55.838;37.184;2023-05-24T14:54:39;3.92;;;2.90;;
65533;SDS011;53640;55.838;37.184;2023-05-24T14:57:06;3.72;;;2.47;;
65533;SDS011;53640;55.838;37.184;2023-05-24T14:59:35;2.83;;;2.63;;
65533;SDS011;53640;55.838;37.184;2023-05-24T15:02:03;5.18;;;2.88;;